createdAt,value
2022-09-18T00:01:45.229Z,16.84
2022-09-18T00:04:15.132Z,16.88
2022-09-18T00:06:45.777Z,16.89
2022-09-18T00:09:16.077Z,16.89
2022-09-18T00:11:48.073Z,16.84
2022-09-18T00:14:21.551Z,16.93
2022-09-18T00:16:50.922Z,16.95
2022-09-18T00:19:19.837Z,16.94
2022-09-18T00:21:50.887Z,17.03
2022-09-18T00:24:19.661Z,17.09
2022-09-18T00:26:48.174Z,17.22
2022-09-18T00:29:18.181Z,17.12
2022-09-18T00:31:46.346Z,17.08
2022-09-18T00:34:16.389Z,17.18
2022-09-18T00:36:44.924Z,17.34
2022-09-18T00:39:13.137Z,17.47
2022-09-18T00:41:43.162Z,17.48
2022-09-18T00:44:42.084Z,17.61
2022-09-18T00:47:09.750Z,17.63
2022-09-18T00:49:45.332Z,16.70
2022-09-18T00:52:15.759Z,16.07
2022-09-18T00:54:49.948Z,17.16
2022-09-18T00:57:25.425Z,18.04
2022-09-18T00:59:54.859Z,18.10
2022-09-18T01:02:22.866Z,17.15
2022-09-18T01:04:51.571Z,16.06
2022-09-18T01:07:50.259Z,15.36
2022-09-18T01:10:55.303Z,15.95
2022-09-18T01:13:37.652Z,16.73
2022-09-18T01:16:40.956Z,17.18
2022-09-18T01:20:06.754Z,17.42
2022-09-18T01:22:54.406Z,17.60
2022-09-18T01:25:56.305Z,17.78
2022-09-18T01:28:39.778Z,17.93
2022-09-18T01:31:17.756Z,17.98
2022-09-18T01:34:12.771Z,17.12
2022-09-18T01:36:49.094Z,15.80
2022-09-18T01:39:35.562Z,15.34
2022-09-18T01:42:08.507Z,16.36
2022-09-18T01:44:41.229Z,16.93
2022-09-18T01:47:14.707Z,17.15
2022-09-18T01:49:48.461Z,17.12
2022-09-18T01:52:31.631Z,17.12
2022-09-18T01:55:03.571Z,17.02
2022-09-18T01:58:03.615Z,17.13
2022-09-18T02:00:32.672Z,17.18
2022-09-18T02:03:11.738Z,17.31
2022-09-18T02:06:11.455Z,17.21
2022-09-18T02:08:53.432Z,17.05
2022-09-18T02:11:22.988Z,16.91
2022-09-18T02:14:07.373Z,16.86
2022-09-18T02:16:50.865Z,16.89
2022-09-18T02:19:41.267Z,16.88
2022-09-18T02:22:17.806Z,16.83
2022-09-18T02:24:50.657Z,16.84
2022-09-18T02:27:21.847Z,16.88
2022-09-18T02:29:49.835Z,16.85
2022-09-18T02:32:17.857Z,16.85
2022-09-18T02:34:45.957Z,16.89
2022-09-18T02:37:41.754Z,16.89
2022-09-18T02:40:35.772Z,16.80
2022-09-18T02:43:54.673Z,16.80
2022-09-18T02:46:47.135Z,16.78
2022-09-18T02:49:30.518Z,16.80
2022-09-18T02:52:29.914Z,16.86
2022-09-18T02:55:07.889Z,16.90
2022-09-18T02:57:47.254Z,16.86
2022-09-18T03:00:18.853Z,16.93
2022-09-18T03:02:47.850Z,17.15
2022-09-18T03:05:15.616Z,17.23
2022-09-18T03:07:43.629Z,17.28
2022-09-18T03:10:11.940Z,17.25
2022-09-18T03:12:39.693Z,17.36
2022-09-18T03:15:08.574Z,17.36
2022-09-18T03:17:36.665Z,17.40
2022-09-18T03:20:07.503Z,17.47
2022-09-18T03:22:35.503Z,17.46
2022-09-18T03:25:03.706Z,17.43
2022-09-18T03:27:31.445Z,17.42
2022-09-18T03:29:59.348Z,17.41
2022-09-18T03:32:27.131Z,17.50
2022-09-18T03:34:56.015Z,17.66
2022-09-18T03:37:24.405Z,17.70
2022-09-18T03:39:52.169Z,17.74
2022-09-18T03:42:19.894Z,17.61
2022-09-18T03:44:47.835Z,17.36
2022-09-18T03:47:15.910Z,17.25
2022-09-18T03:49:43.658Z,16.99
2022-09-18T03:52:11.404Z,16.68
2022-09-18T03:54:39.509Z,16.52
2022-09-18T03:57:07.427Z,16.41
2022-09-18T03:59:35.171Z,16.38
2022-09-18T04:02:03.114Z,16.35
2022-09-18T04:04:31.489Z,16.25
2022-09-18T04:06:59.298Z,16.12
2022-09-18T04:09:27.110Z,16.25
2022-09-18T04:11:54.873Z,16.35
2022-09-18T04:14:25.631Z,16.46
2022-09-18T04:16:57.238Z,16.52
2022-09-18T04:19:25.130Z,16.55
2022-09-18T04:21:52.914Z,16.53
2022-09-18T04:24:20.680Z,16.48
2022-09-18T04:26:49.448Z,16.44
2022-09-18T04:29:17.210Z,16.43
2022-09-18T04:31:45.284Z,16.39
2022-09-18T04:34:13.090Z,16.50
2022-09-18T04:36:40.868Z,16.61
2022-09-18T04:39:08.588Z,16.73
2022-09-18T04:41:37.061Z,16.74
2022-09-18T04:44:05.095Z,16.65
2022-09-18T04:46:33.667Z,16.57
2022-09-18T04:49:01.474Z,16.45
2022-09-18T04:51:29.239Z,16.44
2022-09-18T04:53:57.117Z,16.55
2022-09-18T04:56:24.889Z,16.69
2022-09-18T04:58:52.651Z,16.76
2022-09-18T05:01:20.473Z,16.75
2022-09-18T05:03:48.285Z,16.77
2022-09-18T05:06:16.121Z,16.84
2022-09-18T05:08:43.890Z,16.98
2022-09-18T05:11:11.672Z,17.08
2022-09-18T05:13:40.376Z,16.99
2022-09-18T05:16:08.161Z,16.95
2022-09-18T05:18:36.083Z,17.03
2022-09-18T05:21:05.895Z,17.09
2022-09-18T05:23:34.672Z,17.06
2022-09-18T05:26:03.055Z,16.99
2022-09-18T05:28:31.537Z,16.92
2022-09-18T05:31:00.847Z,17.04
2022-09-18T05:33:29.156Z,17.16
2022-09-18T05:35:58.767Z,17.04
2022-09-18T05:38:27.096Z,17.01
2022-09-18T05:40:54.855Z,17.09
2022-09-18T05:43:22.620Z,16.99
2022-09-18T05:45:50.404Z,16.96
2022-09-18T05:48:18.291Z,17.06
2022-09-18T05:50:46.240Z,17.13
2022-09-18T05:53:19.742Z,17.17
2022-09-18T05:55:48.353Z,17.29
2022-09-18T05:58:19.086Z,17.31
2022-09-18T06:00:48.768Z,17.21
2022-09-18T06:03:17.034Z,17.24
2022-09-18T06:05:53.245Z,17.35
2022-09-18T06:08:21.867Z,17.30
2022-09-18T06:10:49.894Z,17.36
2022-09-18T06:13:19.259Z,17.43
2022-09-18T06:15:52.472Z,17.38
2022-09-18T06:18:20.606Z,17.52
2022-09-18T06:20:55.233Z,17.59
2022-09-18T06:23:25.760Z,17.65
2022-09-18T06:26:03.059Z,17.76
2022-09-18T06:28:32.786Z,17.67
2022-09-18T06:31:04.403Z,17.80
2022-09-18T06:33:35.664Z,17.94
2022-09-18T06:36:08.456Z,18.17
2022-09-18T06:38:36.373Z,18.28
2022-09-18T06:41:04.115Z,18.33
2022-09-18T06:43:31.946Z,18.18
2022-09-18T06:45:59.708Z,17.36
2022-09-18T06:48:29.464Z,16.40
2022-09-18T06:50:59.757Z,16.09
2022-09-18T06:53:28.295Z,16.73
2022-09-18T06:56:00.216Z,17.19
2022-09-18T06:58:28.027Z,17.47
2022-09-18T07:01:01.088Z,17.59
2022-09-18T07:03:29.131Z,17.70
2022-09-18T07:05:56.956Z,17.77
2022-09-18T07:12:33.176Z,18.15
2022-09-18T07:15:09.781Z,18.33
2022-09-18T07:17:41.358Z,18.42
2022-09-18T07:20:15.282Z,18.44
2022-09-18T07:22:57.599Z,17.58
2022-09-18T07:25:38.465Z,16.84
2022-09-18T07:28:11.350Z,17.24
2022-09-18T07:30:40.358Z,17.73
2022-09-18T07:33:11.134Z,17.95
2022-09-18T07:35:49.390Z,18.02
2022-09-18T07:38:17.191Z,17.93
2022-09-18T07:40:54.081Z,17.91
2022-09-18T07:47:22.163Z,17.94
2022-09-18T07:52:35.713Z,18.13
2022-09-18T07:55:13.776Z,18.23
2022-09-18T07:57:41.581Z,18.35
2022-09-18T08:00:11.365Z,18.39
2022-09-18T08:02:39.275Z,17.78
2022-09-18T08:05:10.467Z,16.92
2022-09-18T08:07:47.609Z,16.64
2022-09-18T08:10:20.058Z,17.42
2022-09-18T08:12:56.707Z,18.07
2022-09-18T08:15:24.479Z,18.46
2022-09-18T08:17:58.879Z,18.50
2022-09-18T08:20:31.195Z,17.75
2022-09-18T08:23:12.884Z,17.00
2022-09-18T08:27:11.119Z,17.11
2022-09-18T08:29:40.089Z,18.36
2022-09-18T08:32:24.722Z,18.85
2022-09-18T08:34:54.048Z,19.01
2022-09-18T08:37:23.041Z,18.32
2022-09-18T08:39:55.665Z,17.69
2022-09-18T08:43:09.192Z,17.48
2022-09-18T08:46:01.602Z,18.44
2022-09-18T08:48:47.530Z,19.24
2022-09-18T08:52:00.846Z,19.39
2022-09-18T08:54:49.758Z,18.44
2022-09-18T08:57:43.293Z,17.73
2022-09-18T09:00:25.791Z,17.59
2022-09-18T09:03:10.600Z,18.58
2022-09-18T09:05:54.905Z,19.49
2022-09-18T09:13:15.057Z,18.69
2022-09-18T09:16:09.779Z,17.92
2022-09-18T09:19:01.963Z,17.51
2022-09-18T09:22:01.706Z,18.21
2022-09-18T09:25:03.439Z,19.16
2022-09-18T09:27:54.120Z,19.34
2022-09-18T09:30:23.653Z,18.60
2022-09-18T09:33:25.636Z,18.02
2022-09-18T09:42:14.283Z,19.43
2022-09-18T09:45:43.590Z,18.73
2022-09-18T09:48:46.974Z,17.92
2022-09-18T09:52:53.422Z,17.43
2022-09-18T09:55:37.972Z,18.25
2022-09-18T09:59:08.432Z,19.17
2022-09-18T10:02:04.070Z,19.38
2022-09-18T10:05:08.127Z,18.48
2022-09-18T10:07:54.278Z,17.85
2022-09-18T10:10:52.988Z,17.81
2022-09-18T10:14:22.310Z,18.88
2022-09-18T10:16:55.643Z,19.37
2022-09-18T10:19:40.538Z,18.96
2022-09-18T10:22:32.024Z,18.57
2022-09-18T10:25:47.245Z,18.28
2022-09-18T10:28:16.204Z,18.08
2022-09-18T10:31:13.116Z,18.07
2022-09-18T10:33:45.543Z,18.21
2022-09-18T10:36:49.305Z,19.14
2022-09-18T10:39:57.878Z,20.07
2022-09-18T10:42:58.018Z,19.85
2022-09-18T10:45:45.171Z,19.54
2022-09-18T10:48:29.535Z,19.33
2022-09-18T10:51:03.255Z,19.23
2022-09-18T10:53:39.090Z,19.23
2022-09-18T10:56:21.672Z,19.22
2022-09-18T10:58:52.506Z,19.15
2022-09-18T11:01:30.203Z,19.15
2022-09-18T11:04:06.915Z,19.20
2022-09-18T11:06:38.157Z,19.23
2022-09-18T11:09:19.518Z,19.21
2022-09-18T11:11:54.808Z,19.19
2022-09-18T11:14:28.060Z,19.16
2022-09-18T11:18:18.624Z,19.05
2022-09-18T11:20:48.011Z,18.85
2022-09-18T11:23:38.306Z,18.81
2022-09-18T11:26:37.154Z,18.89
2022-09-18T11:29:25.233Z,18.99
2022-09-18T11:32:27.785Z,19.12
2022-09-18T11:35:02.781Z,19.23
2022-09-18T11:37:49.075Z,19.37
2022-09-18T11:40:30.541Z,19.48
2022-09-18T11:43:03.358Z,19.50
2022-09-18T11:45:53.402Z,19.48
2022-09-18T11:48:32.790Z,19.39
2022-09-18T11:51:13.639Z,19.25
2022-09-18T11:54:15.912Z,19.06
2022-09-18T11:56:55.417Z,18.93
2022-09-18T11:59:34.399Z,18.93
2022-09-18T12:02:46.017Z,18.95
2022-09-18T12:05:27.160Z,18.97
2022-09-18T12:08:23.700Z,19.02
2022-09-18T12:11:27.480Z,19.05
2022-09-18T12:14:18.836Z,19.07
2022-09-18T12:17:04.429Z,19.09
2022-09-18T12:19:49.483Z,19.18
2022-09-18T12:22:30.453Z,19.27
2022-09-18T12:26:02.125Z,19.27
2022-09-18T12:29:32.404Z,19.33
2022-09-18T12:32:40.452Z,19.33
2022-09-18T12:36:03.213Z,19.35
2022-09-18T12:39:00.515Z,19.47
2022-09-18T12:42:17.539Z,19.48
2022-09-18T12:45:19.404Z,19.42
2022-09-18T12:48:28.195Z,19.39
2022-09-18T12:51:42.022Z,19.32
2022-09-18T12:54:52.591Z,19.23
2022-09-18T12:57:58.980Z,19.11
2022-09-18T13:00:30.756Z,18.87
2022-09-18T13:03:29.412Z,18.60
2022-09-18T13:10:42.025Z,17.28
2022-09-18T13:13:55.790Z,16.81
2022-09-18T13:16:51.738Z,16.36
2022-09-18T13:20:43.759Z,15.96
2022-09-18T13:23:46.335Z,15.61
2022-09-18T13:26:16.134Z,15.36
2022-09-18T13:28:51.954Z,15.06
2022-09-18T13:31:32.454Z,14.94
2022-09-18T13:34:16.578Z,15.78
2022-09-18T13:36:47.157Z,16.77
2022-09-18T13:39:55.336Z,17.26
2022-09-18T13:42:43.160Z,16.32
2022-09-18T13:45:20.430Z,15.39
2022-09-18T13:48:21.218Z,15.01
2022-09-18T13:51:00.547Z,15.98
2022-09-18T13:53:42.229Z,16.75
2022-09-18T13:56:20.114Z,17.17
2022-09-18T13:58:56.173Z,16.84
2022-09-18T14:01:43.398Z,16.00
2022-09-18T14:04:48.791Z,15.51
2022-09-18T14:07:16.464Z,16.24
2022-09-18T14:10:03.072Z,16.84
2022-09-18T14:12:36.270Z,17.33
2022-09-18T14:15:26.180Z,17.50
2022-09-18T14:18:14.647Z,16.63
2022-09-18T14:20:52.713Z,15.98
2022-09-18T14:23:35.868Z,16.46
2022-09-18T14:26:34.922Z,17.05
2022-09-18T14:29:12.284Z,17.48
2022-09-18T14:32:10.445Z,17.69
2022-09-18T14:34:40.629Z,17.80
2022-09-18T14:37:35.061Z,17.92
2022-09-18T14:40:31.367Z,17.39
2022-09-18T14:42:59.209Z,16.42
2022-09-18T14:45:31.050Z,15.98
2022-09-18T14:48:22.617Z,16.50
2022-09-18T14:52:03.616Z,17.22
2022-09-18T14:54:48.780Z,17.63
2022-09-18T14:57:25.710Z,17.90
2022-09-18T15:00:01.590Z,18.16
2022-09-18T15:02:37.422Z,17.94
2022-09-18T15:05:22.134Z,17.04
2022-09-18T15:08:01.156Z,16.39
2022-09-18T15:10:30.101Z,16.84
2022-09-18T15:12:59.841Z,17.34
2022-09-18T15:15:33.716Z,17.70
2022-09-18T15:18:05.883Z,17.91
2022-09-18T15:20:36.829Z,17.98
2022-09-18T15:23:33.104Z,17.85
2022-09-18T15:26:16.163Z,16.89
2022-09-18T15:31:44.723Z,16.60
2022-09-18T15:34:27.412Z,17.14
2022-09-18T15:37:37.798Z,17.50
2022-09-18T15:42:44.945Z,17.71
2022-09-18T15:48:53.345Z,17.75
2022-09-18T15:51:35.639Z,16.51
2022-09-18T15:54:12.967Z,15.92
2022-09-18T15:58:16.537Z,16.45
2022-09-18T16:13:52.373Z,15.54
2022-09-18T16:17:15.164Z,15.66
2022-09-18T17:20:00.892Z,17.62
2022-09-18T17:27:16.033Z,17.54
2022-09-18T17:30:31.989Z,17.60
2022-09-18T17:33:24.486Z,17.56
2022-09-18T17:36:48.649Z,17.58
2022-09-18T18:02:17.989Z,17.23
2022-09-18T18:09:14.159Z,17.21
2022-09-18T18:13:09.068Z,17.29
2022-09-18T18:20:59.822Z,17.03
2022-09-18T18:27:40.455Z,16.88
2022-09-18T18:31:36.485Z,16.94
2022-09-18T18:34:42.383Z,16.96
2022-09-18T18:37:57.502Z,16.99
2022-09-18T18:40:32.029Z,16.77
2022-09-18T18:43:14.084Z,16.52
2022-09-18T18:46:20.652Z,16.56
2022-09-18T18:49:04.498Z,16.71
2022-09-18T18:51:48.028Z,16.77
2022-09-18T18:54:30.563Z,16.73
2022-09-18T18:57:01.755Z,16.69
2022-09-18T18:59:32.466Z,16.64
2022-09-18T19:02:04.215Z,16.60
2022-09-18T19:04:40.584Z,16.50
2022-09-18T19:07:08.590Z,16.42
2022-09-18T19:09:39.848Z,16.45
2022-09-18T19:12:07.800Z,16.45
2022-09-18T19:14:38.272Z,16.39
2022-09-18T19:17:35.247Z,16.28
2022-09-18T19:20:26.506Z,16.27
2022-09-18T19:23:31.961Z,16.28
2022-09-18T19:26:10.218Z,16.34
2022-09-18T19:29:16.565Z,16.39
2022-09-18T19:32:01.618Z,16.13
2022-09-18T19:34:30.132Z,16.05
2022-09-18T19:37:06.645Z,16.30
2022-09-18T19:39:55.296Z,16.36
2022-09-18T19:42:37.467Z,16.40
2022-09-18T19:45:09.583Z,16.33
2022-09-18T19:47:51.959Z,16.01
2022-09-18T19:50:48.766Z,15.77
2022-09-18T19:53:16.985Z,15.82
2022-09-18T19:55:47.225Z,16.04
2022-09-18T19:59:16.425Z,16.15
2022-09-18T20:01:52.201Z,16.22
2022-09-18T20:04:31.276Z,16.28
2022-09-18T20:07:19.574Z,16.32
2022-09-18T20:09:47.695Z,16.33
2022-09-18T20:12:16.046Z,16.37
2022-09-18T20:14:44.014Z,16.18
2022-09-18T20:21:08.442Z,15.85
2022-09-18T20:23:48.562Z,15.87
2022-09-18T20:26:19.654Z,15.92
2022-09-18T20:28:48.661Z,15.95
2022-09-18T20:31:36.708Z,15.90
2022-09-18T20:34:05.108Z,15.84
2022-09-18T20:37:18.244Z,15.91
2022-09-18T20:44:15.595Z,15.89
2022-09-18T20:46:44.534Z,15.93
2022-09-18T20:49:20.055Z,15.88
2022-09-18T20:51:47.820Z,15.76
2022-09-18T20:54:24.800Z,15.54
2022-09-18T20:56:52.942Z,15.47
2022-09-18T20:59:26.623Z,15.73
2022-09-18T21:01:57.224Z,15.94
2022-09-18T21:04:29.286Z,16.08
2022-09-18T21:07:02.715Z,16.13
2022-09-18T21:09:32.452Z,16.17
2022-09-18T21:12:03.294Z,16.27
2022-09-18T21:14:34.038Z,16.21
2022-09-18T21:17:10.288Z,16.13
2022-09-18T21:19:38.888Z,16.20
2022-09-18T21:24:05.947Z,16.17
2022-09-18T21:26:55.656Z,15.70
2022-09-18T21:29:30.070Z,15.91
2022-09-18T21:32:55.392Z,16.04
2022-09-18T21:35:23.708Z,16.08
2022-09-18T21:37:54.537Z,16.13
2022-09-18T21:40:22.360Z,16.19
2022-09-18T21:42:59.182Z,16.18
2022-09-18T21:45:36.900Z,16.14
2022-09-18T21:48:18.736Z,16.01
2022-09-18T21:50:49.283Z,15.89
2022-09-18T21:53:17.016Z,15.87
2022-09-18T21:55:44.879Z,15.92
2022-09-18T21:58:19.391Z,16.02
2022-09-18T22:00:53.749Z,16.02
2022-09-18T22:04:45.844Z,16.07
2022-09-18T22:07:13.758Z,16.26
2022-09-18T22:09:43.074Z,16.53
2022-09-18T22:12:14.297Z,16.74
2022-09-18T22:14:45.444Z,16.73
2022-09-18T22:17:16.660Z,16.73
2022-09-18T22:19:44.639Z,16.73
2022-09-18T22:22:14.636Z,16.41
2022-09-18T22:24:45.088Z,16.31
2022-09-18T22:27:16.090Z,16.56
2022-09-18T22:29:46.080Z,16.53
2022-09-18T22:32:16.959Z,16.39
2022-09-18T22:38:09.244Z,16.30
2022-09-18T22:44:26.477Z,16.15
2022-09-18T22:47:20.392Z,16.14
2022-09-18T22:49:48.337Z,16.13
2022-09-18T22:53:32.825Z,16.14
2022-09-18T22:56:26.891Z,16.12
2022-09-18T22:59:02.407Z,16.21
2022-09-18T23:02:02.837Z,16.31
2022-09-18T23:04:39.819Z,16.32
2022-09-18T23:07:39.866Z,16.36
2022-09-18T23:11:04.718Z,16.34
2022-09-18T23:13:59.253Z,16.22
2022-09-18T23:22:56.308Z,16.11
2022-09-18T23:25:44.405Z,16.07
2022-09-18T23:28:49.894Z,16.08
2022-09-18T23:31:37.950Z,16.16
2022-09-18T23:34:22.673Z,16.13
2022-09-18T23:37:04.136Z,15.95
2022-09-18T23:39:44.912Z,15.90
2022-09-18T23:42:21.224Z,16.03
2022-09-18T23:44:49.928Z,16.01
2022-09-18T23:47:18.504Z,16.01
2022-09-18T23:53:01.250Z,16.26
2022-09-18T23:55:53.168Z,16.44
2022-09-18T23:58:24.629Z,16.50
